Time;durP1;ratioP1;P1;durP2;ratioP2;P2;SDS_P1;SDS_P2;PMS_P1;PMS_P2;Temp;Humidity;BMP_temperature;BMP_pressure;BME280_temperature;BME280_humidity;BME280_pressure;Samples;Min_cycle;Max_cycle;Signal;HPM_P1;HPM_P2
2022/05/20 00:00:37;;;;;;;2.22;1.90;;;;;;;17.37;89.44;98861.09;2566023;28;20043;-81
2022/05/20 00:01:53;;;;;;;3.25;2.00;;;;;;;17.33;90.37;98848.97;2570364;28;20140;-81
2022/05/20 00:03:09;;;;;;;3.67;1.83;;;;;;;17.22;90.99;98845.06;2576431;28;20477;-87
2022/05/20 00:04:25;;;;;;;4.22;2.10;;;;;;;17.21;92.08;98834.56;2576205;28;20054;-81
2022/05/20 00:05:41;;;;;;;3.45;1.80;;;;;;;17.16;93.80;98820.69;2576203;28;20066;-83
2022/05/20 00:06:57;;;;;;;5.07;2.25;;;;;;;17.17;93.83;98803.88;2576281;28;20046;-81
2022/05/20 00:08:12;;;;;;;2.90;1.95;;;;;;;17.10;94.37;98815.72;2576515;28;20046;-82
2022/05/20 00:09:28;;;;;;;3.95;2.08;;;;;;;17.07;94.70;98817.56;2576191;28;20057;-82
2022/05/20 00:10:43;;;;;;;5.85;2.38;;;;;;;17.07;95.33;98817.56;2576535;28;20058;-81
2022/05/20 00:11:59;;;;;;;5.32;2.10;;;;;;;17.00;95.59;98805.56;2576845;28;20473;-83
2022/05/20 00:13:15;;;;;;;4.53;2.08;;;;;;;17.01;95.69;98783.47;2576314;28;20057;-86
2022/05/20 00:14:32;;;;;;;2.72;2.05;;;;;;;17.04;95.24;98771.91;2576153;28;20058;-86
2022/05/20 00:15:47;;;;;;;6.00;2.08;;;;;;;16.99;96.82;98777.41;2576739;28;20061;-80
2022/05/20 00:17:05;;;;;;;3.45;2.03;;;;;;;16.93;98.26;98789.09;2565716;28;20058;-80
2022/05/20 00:18:21;;;;;;;2.67;1.88;;;;;;;16.91;98.16;98798.91;2570511;28;20429;-82
2022/05/20 00:19:36;;;;;;;2.47;2.00;;;;;;;16.94;97.27;98821.72;2576397;28;20069;-81
2022/05/20 00:20:52;;;;;;;2.95;2.10;;;;;;;16.97;96.73;98810.97;2576740;28;20583;-81
2022/05/20 00:22:07;;;;;;;4.57;1.90;;;;;;;16.92;97.51;98815.66;2576550;28;20046;-81
2022/05/20 00:23:23;;;;;;;3.20;2.13;;;;;;;16.91;98.04;98819.22;2576797;28;20380;-81
2022/05/20 00:25:45;;;;;;;2.17;1.90;;;;;;;16.98;97.51;98839.13;2576387;28;20054;-85
2022/05/20 00:26:14;;;;;;;2.47;1.95;;;;;;;17.01;95.75;98823.16;2576069;28;20661;-81
2022/05/20 00:27:30;;;;;;;5.60;2.10;;;;;;;16.91;98.96;98800.72;2576441;28;20069;-81
2022/05/20 00:28:48;;;;;;;3.58;1.80;;;;;;;16.86;96.42;98797.41;2564650;28;20113;-84
2022/05/20 00:30:04;;;;;;;3.25;2.00;;;;;;;16.79;98.34;98808.31;2559856;28;20063;-80
2022/05/20 00:31:22;;;;;;;5.53;2.10;;;;;;;16.84;96.69;98808.09;2569878;28;20137;-81
2022/05/20 00:32:38;;;;;;;5.70;2.00;;;;;;;16.74;97.17;98805.00;2576148;28;20144;-83
2022/05/20 00:33:54;;;;;;;3.25;2.10;;;;;;;16.69;99.83;98808.78;2576376;28;20054;-82
2022/05/20 00:35:11;;;;;;;2.58;1.80;;;;;;;16.71;99.24;98806.94;2576465;28;20434;-81
2022/05/20 00:36:27;;;;;;;5.93;2.00;;;;;;;16.73;100.00;98800.63;2575989;28;20054;-84
2022/05/20 00:37:43;;;;;;;2.92;2.03;;;;;;;16.62;100.00;98805.56;2576251;28;20121;-82
2022/05/20 00:38:59;;;;;;;4.55;2.03;;;;;;;16.67;99.29;98811.53;2576194;28;20481;-81
2022/05/20 00:40:21;;;;;;;4.40;2.03;;;;;;;16.79;98.75;98816.22;2576272;28;20085;-86
2022/05/20 00:41:36;;;;;;;4.25;2.03;;;;;;;16.86;96.92;98813.28;2576349;28;20049;-81
2022/05/20 00:43:12;;;;;;;2.80;1.77;;;;;;;17.02;95.06;98811.63;2576322;28;20054;-83
2022/05/20 00:44:27;;;;;;;2.08;1.60;;;;;;;17.13;92.87;98815.56;2576155;28;20101;-81
2022/05/20 00:45:44;;;;;;;6.88;2.35;;;;;;;17.13;95.42;98799.69;2576041;28;20165;-87
2022/05/20 00:47:00;;;;;;;2.10;1.85;;;;;;;17.04;96.48;98807.16;2576136;28;20575;-81
2022/05/20 00:48:16;;;;;;;3.90;1.85;;;;;;;17.06;96.71;98804.41;2576094;28;20156;-86
2022/05/20 00:49:34;;;;;;;3.17;2.00;;;;;;;16.91;97.76;98796.25;2576293;28;20054;-82
2022/05/20 00:50:57;;;;;;;3.55;1.70;;;;;;;16.95;96.47;98796.97;2576177;28;20054;-82
2022/05/20 00:52:15;;;;;;;2.67;1.60;;;;;;;16.92;95.99;98792.69;2575797;28;20050;-81
2022/05/20 00:53:37;;;;;;;1.33;1.15;;;;;;;17.08;90.70;98805.19;2575630;28;20046;-85
2022/05/20 00:54:57;;;;;;;1.30;1.20;;;;;;;17.29;87.48;98800.63;2576187;28;20544;-81
2022/05/20 00:56:18;;;;;;;2.92;1.40;;;;;;;17.21;90.74;98802.81;2575928;28;20046;-80
2022/05/20 00:57:39;;;;;;;2.10;1.45;;;;;;;17.13;95.03;98805.84;2576205;28;20058;-84
2022/05/20 00:58:55;;;;;;;1.63;1.40;;;;;;;17.10;93.17;98802.47;2575890;28;20054;-82
2022/05/20 01:00:19;;;;;;;3.53;1.50;;;;;;;17.12;93.99;98808.56;2575840;28;20191;-81
2022/05/20 01:01:36;;;;;;;3.15;1.40;;;;;;;17.05;94.50;98808.00;2576193;28;20093;-83
2022/05/20 01:02:56;;;;;;;1.73;1.45;;;;;;;16.95;95.54;98797.81;2575550;28;20050;-82
2022/05/20 01:04:13;;;;;;;2.75;1.50;;;;;;;16.92;95.58;98794.50;2576174;28;20077;-82
2022/05/20 01:05:36;;;;;;;2.17;1.58;;;;;;;16.87;95.06;98797.34;2575604;28;20568;-82
2022/05/20 01:06:53;;;;;;;1.67;1.50;;;;;;;16.84;95.72;98794.00;2576232;28;20053;-81
2022/05/20 01:08:13;;;;;;;2.85;1.65;;;;;;;16.78;96.15;98789.84;2576149;28;20097;-82
2022/05/20 01:09:29;;;;;;;2.38;1.77;;;;;;;16.83;95.93;98789.63;2565155;28;20121;-86
2022/05/20 01:10:45;;;;;;;2.80;1.75;;;;;;;16.84;95.72;98788.69;2569530;28;20101;-82
2022/05/20 01:12:00;;;;;;;2.10;1.60;;;;;;;16.87;95.44;98786.78;2575974;28;20046;-81
2022/05/20 01:13:20;;;;;;;2.80;1.50;;;;;;;16.93;95.17;98783.81;2575856;28;20811;-82
2022/05/20 01:14:36;;;;;;;2.08;1.52;;;;;;;16.67;96.50;98790.38;2576193;28;20085;-82
2022/05/20 01:15:53;;;;;;;3.58;1.80;;;;;;;16.73;96.57;98808.56;2576114;28;20050;-80
2022/05/20 01:17:09;;;;;;;3.40;1.60;;;;;;;16.63;97.42;98800.22;2575759;28;20603;-82
2022/05/20 01:18:25;;;;;;;3.83;1.60;;;;;;;16.50;98.50;98802.59;2576138;28;20104;-81
2022/05/20 01:19:46;;;;;;;1.67;1.58;;;;;;;16.44;99.13;98821.38;2575913;28;20460;-80
2022/05/20 01:21:02;;;;;;;5.82;2.08;;;;;;;16.35;100.00;98825.28;2576039;28;20046;-81
2022/05/20 01:22:30;;;;;;;6.00;1.90;;;;;;;16.29;100.00;98833.50;2576019;28;20052;-82
2022/05/20 01:23:46;;;;;;;4.72;1.98;;;;;;;16.26;100.00;98827.50;2575756;28;20077;-81
2022/05/20 01:25:03;;;;;;;3.10;1.70;;;;;;;16.17;100.00;98824.34;2575620;28;20050;-81
2022/05/20 01:26:20;;;;;;;4.75;2.40;;;;;;;16.13;100.00;98841.25;2575528;28;20878;-84
2022/05/20 01:27:37;;;;;;;5.80;2.60;;;;;;;16.05;100.00;98836.31;2575461;28;20496;-87
2022/05/20 01:28:53;;;;;;;2.83;2.30;;;;;;;15.95;100.00;98835.88;2575504;28;20058;-81
2022/05/20 01:30:11;;;;;;;2.92;1.80;;;;;;;15.97;100.00;98840.22;2575596;28;20437;-81
2022/05/20 01:31:27;;;;;;;3.25;2.22;;;;;;;15.87;100.00;98843.22;2575674;28;20493;-82
2022/05/20 01:32:42;;;;;;;3.22;2.28;;;;;;;15.78;100.00;98846.25;2554791;29;20130;-82
2022/05/20 01:33:58;;;;;;;3.25;2.33;;;;;;;15.82;100.00;98842.56;2557039;28;20117;-81
2022/05/20 01:35:33;;;;;;;7.00;2.30;;;;;;;15.88;100.00;98852.03;2565685;28;20058;-81
2022/05/20 01:36:49;;;;;;;3.63;2.38;;;;;;;15.88;100.00;98852.03;2575637;28;20108;-82
2022/05/20 01:38:06;;;;;;;3.22;1.92;;;;;;;15.86;100.00;98851.22;2575257;28;20068;-84
2022/05/20 01:39:21;;;;;;;3.80;1.80;;;;;;;15.93;100.00;98850.94;2575584;28;20144;-82
2022/05/20 01:40:44;;;;;;;7.78;2.03;;;;;;;15.85;100.00;98858.28;2575811;28;20073;-82
2022/05/20 01:42:36;;;;;;;3.30;1.88;;;;;;;15.84;100.00;98860.97;2564534;28;20051;-84
2022/05/20 01:43:57;;;;;;;6.07;1.80;;;;;;;15.79;100.00;98859.41;2573927;28;20168;-83
2022/05/20 01:45:17;;;;;;;5.10;2.10;;;;;;;15.86;100.00;98860.00;2575445;28;20046;-80
2022/05/20 01:47:10;;;;;;;2.58;1.77;;;;;;;15.85;100.00;98860.03;2575577;28;20086;-82
2022/05/20 01:48:35;;;;;;;3.80;2.00;;;;;;;15.91;100.00;98857.19;2575698;28;20050;-83
2022/05/20 01:50:04;;;;;;;2.90;1.88;;;;;;;15.93;100.00;98850.94;2575845;28;20459;-81
2022/05/20 01:51:23;;;;;;;5.55;2.15;;;;;;;15.94;100.00;98855.28;2575322;28;20531;-82
2022/05/20 01:53:23;;;;;;;11.23;2.38;;;;;;;15.86;100.00;98857.34;2575493;28;20096;-82
2022/05/20 01:54:50;;;;;;;3.53;1.80;;;;;;;15.83;100.00;98854.84;2543911;29;20059;-82
2022/05/20 01:56:24;;;;;;;2.45;2.10;;;;;;;15.81;100.00;98857.53;2544277;29;20050;-83
2022/05/20 01:57:45;;;;;;;2.45;2.00;;;;;;;15.81;100.00;98851.44;2575150;28;20100;-81
2022/05/20 01:59:21;;;;;;;2.53;1.80;;;;;;;15.78;100.00;98841.84;2575901;28;20077;-82
2022/05/20 02:00:39;;;;;;;3.15;2.47;;;;;;;15.76;100.00;98843.69;2575184;28;20141;-82
2022/05/20 02:02:00;;;;;;;5.93;2.00;;;;;;;15.70;100.00;98845.75;2575102;28;20051;-86
2022/05/20 02:03:22;;;;;;;2.88;1.83;;;;;;;15.62;100.00;98840.78;2571321;28;20051;-81
2022/05/20 02:04:44;;;;;;;2.47;1.60;;;;;;;15.52;100.00;98837.69;2573176;28;20058;-81
2022/05/20 02:06:09;;;;;;;3.42;1.90;;;;;;;15.49;100.00;98836.03;2575401;28;20100;-81
2022/05/20 02:07:29;;;;;;;2.22;1.70;;;;;;;15.47;100.00;98839.63;2575294;28;20423;-81
2022/05/20 02:09:11;;;;;;;3.30;1.67;;;;;;;15.41;100.00;98834.63;2575531;28;20054;-81
2022/05/20 02:10:36;;;;;;;2.78;1.92;;;;;;;15.36;100.00;98840.09;2575316;28;20057;-81
2022/05/20 02:11:54;;;;;;;2.03;1.60;;;;;;;15.31;100.00;98836.78;2575342;28;20081;-82
2022/05/20 02:13:13;;;;;;;5.78;1.80;;;;;;;15.23;100.00;98847.66;2575312;28;20142;-80
2022/05/20 02:14:43;;;;;;;2.25;1.70;;;;;;;15.10;100.00;98842.88;2574552;28;20061;-81
2022/05/20 02:16:12;;;;;;;8.70;1.70;;;;;;;15.05;100.00;98852.72;2575423;28;20046;-80
2022/05/20 02:17:27;;;;;;;3.05;1.85;;;;;;;15.02;100.00;98855.50;2575547;28;20390;-81
2022/05/20 02:18:54;;;;;;;3.58;2.10;;;;;;;14.91;100.00;98848.03;2575694;28;20225;-81
2022/05/20 02:20:14;;;;;;;3.80;1.80;;;;;;;14.93;100.00;98845.31;2575569;28;20054;-80
2022/05/20 02:21:32;;;;;;;4.82;2.08;;;;;;;14.95;100.00;98854.03;2575726;28;20053;-81
2022/05/20 02:22:54;;;;;;;3.67;2.08;;;;;;;14.92;100.00;98851.50;2575546;28;20050;-82
2022/05/20 02:24:13;;;;;;;4.38;2.15;;;;;;;14.92;100.00;98848.88;2575458;28;20058;-80
2022/05/20 02:25:37;;;;;;;3.08;1.88;;;;;;;14.91;100.00;98852.41;2575208;28;20058;-82
2022/05/20 02:26:57;;;;;;;3.28;2.00;;;;;;;14.89;100.00;98847.22;2575124;28;20050;-81
2022/05/20 02:28:18;;;;;;;2.28;1.70;;;;;;;14.91;100.00;98860.34;2575169;28;20638;-84
2022/05/20 02:29:58;;;;;;;2.17;1.95;;;;;;;14.88;100.00;98855.19;2575705;28;20051;-81
2022/05/20 02:31:18;;;;;;;5.07;1.80;;;;;;;14.89;100.00;98856.91;2575160;28;20077;-81
2022/05/20 02:32:59;;;;;;;4.50;2.20;;;;;;;14.89;100.00;98851.63;2564468;28;20485;-81
2022/05/20 02:34:15;;;;;;;3.25;1.70;;;;;;;14.85;100.00;98850.88;2571590;28;20128;-81
2022/05/20 02:35:31;;;;;;;3.42;2.10;;;;;;;14.83;100.00;98856.22;2575162;28;20062;-81
2022/05/20 02:36:47;;;;;;;2.25;1.77;;;;;;;14.77;100.00;98851.19;2564451;28;20050;-84
2022/05/20 02:38:09;;;;;;;3.78;1.98;;;;;;;14.77;100.00;98851.19;2569011;28;20117;-81
2022/05/20 02:39:24;;;;;;;3.25;2.05;;;;;;;14.73;100.00;98849.59;2575736;28;20138;-83
2022/05/20 02:40:42;;;;;;;2.55;2.10;;;;;;;14.81;100.00;98846.66;2575520;28;20449;-82
2022/05/20 02:41:58;;;;;;;3.47;2.05;;;;;;;14.77;100.00;98856.44;2575378;28;20086;-85
2022/05/20 02:43:13;;;;;;;2.90;1.80;;;;;;;14.76;100.00;98857.38;2575154;28;20062;-83
2022/05/20 02:44:29;;;;;;;5.72;1.98;;;;;;;14.75;100.00;98857.44;2575310;28;20050;-85
2022/05/20 02:45:46;;;;;;;2.03;1.83;;;;;;;14.76;100.00;98852.09;2575200;28;20065;-81
2022/05/20 02:47:03;;;;;;;3.45;1.92;;;;;;;14.75;100.00;98860.94;2574768;28;20485;-81
2022/05/20 02:48:21;;;;;;;4.50;2.10;;;;;;;14.74;100.00;98850.47;2575105;28;20057;-81
2022/05/20 02:49:37;;;;;;;3.20;1.98;;;;;;;14.73;100.00;98852.22;2574839;28;21019;-83
2022/05/20 02:50:53;;;;;;;4.00;2.10;;;;;;;14.79;100.00;98851.13;2575176;28;20417;-81
2022/05/20 02:52:08;;;;;;;3.70;2.50;;;;;;;14.74;100.00;98851.31;2575167;28;20153;-80
2022/05/20 02:53:24;;;;;;;3.85;2.10;;;;;;;14.70;100.00;98862.88;2575136;28;20050;-81
2022/05/20 02:54:39;;;;;;;2.00;1.80;;;;;;;14.67;100.00;98857.72;2575268;28;20136;-82
2022/05/20 02:55:56;;;;;;;3.72;2.03;;;;;;;14.63;100.00;98851.69;2575446;28;20527;-81
2022/05/20 02:57:11;;;;;;;2.97;2.17;;;;;;;14.65;100.00;98855.13;2575006;28;20406;-83
2022/05/20 03:04:46;;;;;;;2.13;1.90;;;;;;;14.59;100.00;98860.59;2575345;28;20057;-80
2022/05/20 03:06:02;;;;;;;2.40;2.20;;;;;;;14.61;100.00;98864.06;2575548;28;20051;-81
2022/05/20 03:07:17;;;;;;;4.05;2.47;;;;;;;14.59;100.00;98863.25;2575422;28;20054;-80
2022/05/20 03:08:33;;;;;;;3.70;2.00;;;;;;;14.62;100.00;98862.28;2575373;28;20137;-80
2022/05/20 03:09:51;;;;;;;6.80;2.28;;;;;;;14.66;100.00;98861.25;2575276;28;20046;-80
2022/05/20 03:11:07;;;;;;;3.15;2.17;;;;;;;14.66;100.00;98867.38;2575672;28;20520;-80
2022/05/20 03:12:22;;;;;;;3.33;2.55;;;;;;;14.63;100.00;98869.25;2574982;28;20073;-79
2022/05/20 03:13:38;;;;;;;4.10;2.60;;;;;;;14.66;100.00;98872.66;2575114;28;20520;-80
2022/05/20 03:14:54;;;;;;;6.85;2.53;;;;;;;14.64;100.00;98871.84;2575127;28;20769;-80
2022/05/20 03:16:09;;;;;;;2.97;2.22;;;;;;;14.67;100.00;98873.53;2575121;28;20099;-85
2022/05/20 03:17:25;;;;;;;3.13;2.50;;;;;;;14.68;100.00;98869.97;2575284;28;20049;-81
2022/05/20 03:18:40;;;;;;;4.05;2.50;;;;;;;14.69;100.00;98875.16;2574781;28;20050;-83
2022/05/20 03:19:56;;;;;;;3.15;2.50;;;;;;;14.72;100.00;98866.31;2575684;28;20073;-83
2022/05/20 03:21:12;;;;;;;5.38;2.90;;;;;;;14.73;100.00;98873.31;2575443;28;20102;-80
2022/05/20 03:22:28;;;;;;;3.72;2.33;;;;;;;14.73;100.00;98870.69;2575219;28;20589;-80
2022/05/20 03:23:43;;;;;;;4.72;2.20;;;;;;;14.73;100.00;98878.59;2564462;28;20258;-80
2022/05/20 03:24:59;;;;;;;4.03;2.45;;;;;;;14.73;100.00;98878.59;2568812;28;20054;-80
2022/05/20 03:26:15;;;;;;;4.03;2.58;;;;;;;14.70;100.00;98868.13;2576718;28;20180;-80
2022/05/20 03:27:32;;;;;;;4.25;2.30;;;;;;;14.81;100.00;98870.38;2577354;28;20058;-81
2022/05/20 03:28:48;;;;;;;4.25;2.30;;;;;;;14.79;100.00;98880.97;2577143;28;20050;-80
2022/05/20 03:30:07;;;;;;;6.93;2.33;;;;;;;14.73;100.00;98877.72;2577293;28;20065;-85
2022/05/20 03:31:23;;;;;;;4.35;2.20;;;;;;;14.65;100.00;98878.84;2577258;28;20153;-80
2022/05/20 03:32:39;;;;;;;4.72;2.53;;;;;;;14.64;100.00;98881.53;2577035;28;20046;-81
2022/05/20 03:33:55;;;;;;;4.18;2.13;;;;;;;14.61;100.00;98879.00;2575307;28;20051;-80
2022/05/20 03:35:12;;;;;;;3.88;2.25;;;;;;;14.60;100.00;98887.84;2577162;28;20052;-81
2022/05/20 03:36:27;;;;;;;8.32;2.47;;;;;;;14.59;100.00;98879.06;2577102;28;20129;-80
2022/05/20 03:37:43;;;;;;;4.13;2.55;;;;;;;14.61;100.00;98882.53;2576840;28;20109;-81
2022/05/20 03:38:59;;;;;;;5.00;2.38;;;;;;;14.63;100.00;98885.06;2576662;28;20054;-80
2022/05/20 03:40:15;;;;;;;6.85;2.42;;;;;;;14.64;100.00;98885.03;2576513;28;20066;-80
2022/05/20 03:41:30;;;;;;;5.18;2.60;;;;;;;14.70;100.00;98883.94;2576954;28;20299;-79
2022/05/20 03:42:46;;;;;;;3.38;2.08;;;;;;;14.73;100.00;98890.88;2576838;28;20069;-79
2022/05/20 03:44:02;;;;;;;5.10;2.13;;;;;;;14.70;100.00;98886.59;2576657;28;20421;-87
2022/05/20 03:45:17;;;;;;;4.18;2.65;;;;;;;14.76;100.00;98886.38;2576641;28;20496;-80
2022/05/20 03:46:33;;;;;;;4.03;2.35;;;;;;;14.82;100.00;98890.53;2576656;28;20133;-80
2022/05/20 03:47:48;;;;;;;9.35;2.47;;;;;;;14.77;100.00;98889.88;2576785;28;20464;-79
2022/05/20 03:49:04;;;;;;;4.57;2.60;;;;;;;14.77;100.00;98887.25;2576457;28;20081;-79
2022/05/20 03:50:20;;;;;;;4.00;2.40;;;;;;;14.78;100.00;98883.69;2576898;28;20046;-80
2022/05/20 03:51:35;;;;;;;2.72;2.50;;;;;;;14.74;100.00;98885.56;2576898;28;20074;-79
2022/05/20 03:52:51;;;;;;;2.60;2.10;;;;;;;14.74;100.00;98890.00;2576783;28;20161;-79
2022/05/20 03:54:07;;;;;;;3.90;2.67;;;;;;;14.74;100.00;98890.84;2576850;28;20421;-79
2022/05/20 03:55:23;;;;;;;4.40;2.60;;;;;;;14.66;100.00;98888.47;2576592;28;20081;-80
2022/05/20 03:56:40;;;;;;;4.50;2.50;;;;;;;14.65;100.00;98897.28;2576707;28;20053;-80
2022/05/20 03:57:56;;;;;;;4.90;2.85;;;;;;;14.58;100.00;98895.78;2576445;28;20125;-80
2022/05/20 03:59:12;;;;;;;6.53;2.60;;;;;;;14.53;100.00;98898.63;2576576;28;20050;-82
2022/05/20 04:00:28;;;;;;;5.57;3.03;;;;;;;14.49;100.00;98907.53;2576558;28;20056;-83
2022/05/20 04:01:59;;;;;;;4.35;2.70;;;;;;;14.41;100.00;98904.34;2576585;28;20416;-80
2022/05/20 04:03:15;;;;;;;4.30;2.67;;;;;;;14.45;100.00;98903.28;2576203;28;20050;-81
2022/05/20 04:04:40;;;;;;;5.10;3.20;;;;;;;14.56;100.00;98908.16;2565035;28;20612;-80
2022/05/20 04:05:55;;;;;;;4.97;2.75;;;;;;;14.57;100.00;98906.41;2570950;28;20184;-86
2022/05/20 04:07:20;;;;;;;3.88;3.10;;;;;;;14.64;100.00;98907.88;2576663;28;20492;-81
2022/05/20 04:08:35;;;;;;;3.85;3.10;;;;;;;14.66;100.00;98909.53;2576503;28;20050;-82
2022/05/20 04:09:51;;;;;;;4.15;3.10;;;;;;;14.80;100.00;98911.69;2576708;28;20096;-81
2022/05/20 04:11:11;;;;;;;5.30;3.05;;;;;;;14.90;100.00;98912.22;2576667;28;20058;-81
2022/05/20 04:12:30;;;;;;;4.22;2.65;;;;;;;14.97;100.00;98911.03;2576492;28;20053;-83
2022/05/20 04:13:45;;;;;;;4.60;2.92;;;;;;;14.83;100.00;98922.13;2576553;28;20054;-81
2022/05/20 04:15:03;;;;;;;5.07;2.75;;;;;;;14.84;100.00;98920.34;2576867;28;20420;-81
2022/05/20 04:16:19;;;;;;;4.32;2.80;;;;;;;14.81;100.00;98923.97;2576463;28;20088;-81
2022/05/20 04:17:34;;;;;;;5.07;2.65;;;;;;;14.82;100.00;98923.06;2576520;28;20937;-84
2022/05/20 04:18:50;;;;;;;4.00;2.80;;;;;;;14.83;100.00;98922.13;2576493;28;20051;-82
2022/05/20 04:20:07;;;;;;;5.63;2.97;;;;;;;14.82;100.00;98923.06;2576452;28;20505;-82
2022/05/20 04:21:23;;;;;;;3.10;2.78;;;;;;;14.80;100.00;98922.22;2576452;28;20101;-81
2022/05/20 04:22:39;;;;;;;3.65;2.85;;;;;;;14.81;100.00;98926.59;2576274;28;20427;-85
2022/05/20 04:23:54;;;;;;;4.57;3.30;;;;;;;14.83;100.00;98931.81;2576415;28;20056;-82
2022/05/20 04:25:11;;;;;;;4.57;3.17;;;;;;;14.85;100.00;98931.75;2576375;28;20149;-81
2022/05/20 04:26:27;;;;;;;4.32;3.17;;;;;;;14.96;100.00;98935.69;2576373;28;20137;-81
2022/05/20 04:27:42;;;;;;;5.30;3.10;;;;;;;15.01;100.00;98935.53;2574742;28;20046;-81
2022/05/20 04:28:58;;;;;;;5.55;3.33;;;;;;;15.02;100.00;98937.25;2564895;28;20465;-81
2022/05/20 04:30:14;;;;;;;3.30;3.00;;;;;;;15.06;100.00;98930.09;2559137;28;20655;-81
2022/05/20 04:31:29;;;;;;;5.82;3.20;;;;;;;15.11;100.00;98934.25;2569793;28;20489;-82
2022/05/20 04:32:45;;;;;;;4.18;2.80;;;;;;;15.16;100.00;98936.72;2576367;28;20081;-81
2022/05/20 04:34:00;;;;;;;4.00;3.25;;;;;;;15.12;100.00;98937.75;2576243;28;20073;-82
2022/05/20 04:35:16;;;;;;;3.55;3.05;;;;;;;15.10;100.00;98936.94;2576161;28;20061;-85
2022/05/20 04:36:32;;;;;;;5.10;3.20;;;;;;;15.14;100.00;98940.31;2576163;28;20112;-82
2022/05/20 04:37:47;;;;;;;4.03;3.08;;;;;;;15.12;100.00;98943.00;2575275;28;20057;-81
2022/05/20 04:39:03;;;;;;;4.97;2.92;;;;;;;15.16;100.00;98949.03;2576306;28;20042;-81
2022/05/20 04:40:18;;;;;;;4.30;3.08;;;;;;;15.14;100.00;98948.25;2576188;28;20054;-80
2022/05/20 04:47:52;;;;;;;4.45;2.90;;;;;;;15.32;100.00;98954.59;2576125;28;20785;-84
2022/05/20 04:49:09;;;;;;;4.65;3.10;;;;;;;15.36;100.00;98948.25;2576062;28;20177;-85
2022/05/20 04:50:25;;;;;;;3.45;3.03;;;;;;;15.42;100.00;98947.16;2570074;28;20055;-88
2022/05/20 04:51:41;;;;;;;5.10;3.15;;;;;;;15.41;100.00;98948.09;2571890;28;20129;-84
2022/05/20 04:52:56;;;;;;;4.03;2.83;;;;;;;15.37;100.00;98948.22;2555017;29;20059;-86
2022/05/20 04:55:46;;;;;;;4.57;3.08;;;;;;;15.46;100.00;98943.47;2572359;28;20438;-87
2022/05/20 04:57:02;;;;;;;5.25;3.15;;;;;;;15.52;100.00;98954.63;2576077;28;20077;-85
2022/05/20 04:58:17;;;;;;;3.40;3.05;;;;;;;15.61;100.00;98958.69;2576124;28;21141;-85
2022/05/20 04:59:35;;;;;;;3.83;3.13;;;;;;;15.68;100.00;98956.66;2576001;28;20061;-86
2022/05/20 05:00:51;;;;;;;5.25;3.45;;;;;;;15.66;100.00;98959.38;2576080;28;20054;-86
2022/05/20 05:02:07;;;;;;;4.95;3.38;;;;;;;15.63;100.00;98959.47;2575793;28;20050;-87
2022/05/20 05:03:23;;;;;;;3.95;3.38;;;;;;;15.63;100.00;98959.47;2575913;28;20061;-86
2022/05/20 05:04:39;;;;;;;4.85;3.38;;;;;;;15.67;100.00;98960.22;2575832;28;20137;-86
2022/05/20 05:05:55;;;;;;;5.45;3.25;;;;;;;15.70;100.00;98959.25;2575749;28;20090;-86
2022/05/20 05:07:11;;;;;;;4.13;3.25;;;;;;;15.76;100.00;98965.13;2575678;28;20057;-86
2022/05/20 05:08:27;;;;;;;6.85;3.10;;;;;;;15.81;100.00;98968.44;2575806;28;20504;-86
2022/05/20 05:09:44;;;;;;;5.07;3.17;;;;;;;15.87;100.00;98974.41;2575823;28;20422;-86
2022/05/20 05:11:00;;;;;;;4.25;3.05;;;;;;;15.97;100.00;98978.38;2575720;28;20058;-86
2022/05/20 05:12:16;;;;;;;5.82;3.13;;;;;;;16.03;100.00;98975.50;2575803;28;20632;-86
2022/05/20 05:13:32;;;;;;;5.65;3.60;;;;;;;16.11;100.00;98977.81;2575335;28;20073;-86
2022/05/20 05:14:50;;;;;;;4.82;3.40;;;;;;;16.17;100.00;98979.34;2575813;28;20499;-86
2022/05/20 05:16:07;;;;;;;3.40;3.00;;;;;;;16.24;100.00;98992.22;2575670;28;20050;-87
2022/05/20 05:19:00;;;;;;;4.38;3.03;;;;;;;16.31;100.00;98987.53;2573358;28;20057;-88
2022/05/20 05:20:20;;;;;;;3.40;2.55;;;;;;;16.39;100.00;98987.22;2575877;28;20061;-86
2022/05/20 05:21:36;;;;;;;3.92;3.15;;;;;;;16.40;100.00;98991.56;2575763;28;20046;-87
2022/05/20 05:22:53;;;;;;;3.72;3.22;;;;;;;16.47;100.00;98986.88;2575885;28;20054;-86
2022/05/20 05:24:09;;;;;;;5.00;3.35;;;;;;;16.54;100.00;98992.75;2575855;28;20473;-86
2022/05/20 05:25:28;;;;;;;3.53;3.10;;;;;;;16.62;100.00;98993.25;2576040;28;20109;-87
2022/05/20 05:26:44;;;;;;;5.95;3.28;;;;;;;16.66;100.00;98993.06;2576062;28;20054;-86
2022/05/20 05:28:00;;;;;;;5.43;3.33;;;;;;;16.70;100.00;98988.50;2576191;28;20050;-86
2022/05/20 05:29:16;;;;;;;4.05;2.83;;;;;;;16.71;100.00;98986.75;2576078;28;20464;-86
2022/05/20 05:30:32;;;;;;;3.65;2.88;;;;;;;16.76;100.00;98992.66;2576046;28;20654;-88
2022/05/20 05:31:48;;;;;;;5.15;3.08;;;;;;;16.77;100.00;98984.69;2575843;28;20054;-88
2022/05/20 05:33:04;;;;;;;4.43;3.05;;;;;;;16.83;100.00;98983.50;2575735;28;20046;-86
2022/05/20 05:34:20;;;;;;;4.03;3.20;;;;;;;16.84;100.00;98989.69;2575752;28;20269;-88
2022/05/20 05:35:35;;;;;;;6.32;3.30;;;;;;;16.85;100.00;98996.69;2576193;28;20117;-89
2022/05/20 05:36:51;;;;;;;4.82;3.38;;;;;;;16.87;100.00;98990.41;2575539;28;20077;-89
2022/05/20 05:38:07;;;;;;;5.22;3.50;;;;;;;16.90;100.00;98995.53;2576093;28;20424;-88
2022/05/20 05:39:22;;;;;;;6.07;3.55;;;;;;;16.92;100.00;98993.69;2576282;28;20188;-87
2022/05/20 05:40:39;;;;;;;3.58;3.28;;;;;;;16.94;100.00;98994.47;2575978;28;20042;-87
2022/05/20 05:41:58;;;;;;;5.45;3.45;;;;;;;17.01;100.00;98996.88;2575939;28;20054;-87
2022/05/20 05:43:14;;;;;;;3.55;3.13;;;;;;;17.00;100.00;98998.66;2575905;28;20076;-84
2022/05/20 05:44:29;;;;;;;5.28;3.08;;;;;;;17.12;100.00;98994.63;2575556;28;20061;-88
2022/05/20 05:45:45;;;;;;;4.90;3.40;;;;;;;17.17;100.00;98995.25;2576294;28;20077;-88
2022/05/20 05:47:00;;;;;;;4.25;2.97;;;;;;;17.23;100.00;98994.09;2575920;28;20050;-87
2022/05/20 05:48:17;;;;;;;3.63;2.90;;;;;;;17.26;100.00;98991.31;2575944;28;20670;-87
2022/05/20 05:49:33;;;;;;;3.58;2.80;;;;;;;17.28;100.00;98992.09;2574510;28;20046;-86
2022/05/20 05:50:48;;;;;;;3.25;2.88;;;;;;;17.32;100.00;98995.47;2575705;28;20500;-87
2022/05/20 05:52:04;;;;;;;3.78;3.10;;;;;;;17.36;100.00;98989.09;2575256;28;20508;-86
2022/05/20 05:53:21;;;;;;;4.68;3.33;;;;;;;17.41;100.00;98991.50;2575794;28;20140;-87
2022/05/20 05:54:37;;;;;;;5.75;3.03;;;;;;;17.48;100.00;98985.00;2575971;28;20517;-86
2022/05/20 05:55:58;;;;;;;4.43;2.55;;;;;;;17.60;100.00;98981.78;2575907;28;20061;-86
2022/05/20 05:57:14;;;;;;;7.40;2.85;;;;;;;17.67;100.00;98978.81;2575636;28;20507;-87
2022/05/20 05:58:30;;;;;;;4.90;2.90;;;;;;;17.70;100.00;98982.19;2575885;28;20058;-86
2022/05/20 05:59:46;;;;;;;5.53;2.80;;;;;;;17.74;100.00;98978.44;2575835;28;20054;-88
2022/05/20 06:01:02;;;;;;;4.07;2.92;;;;;;;17.91;100.00;98979.41;2575900;28;20046;-87
2022/05/20 06:02:17;;;;;;;3.95;2.67;;;;;;;18.04;98.15;98969.94;2575739;28;20412;-86
2022/05/20 06:03:34;;;;;;;5.32;2.72;;;;;;;18.10;98.01;98979.38;2575173;28;20058;-85
2022/05/20 06:04:51;;;;;;;3.97;2.90;;;;;;;18.20;96.13;98977.97;2575892;28;20050;-88
2022/05/20 06:06:07;;;;;;;2.70;2.50;;;;;;;18.24;98.35;98981.34;2576288;28;20109;-86
2022/05/20 06:07:22;;;;;;;3.75;2.78;;;;;;;18.27;96.75;98977.66;2576117;28;20046;-86
2022/05/20 06:08:38;;;;;;;4.25;2.72;;;;;;;18.34;95.94;98973.75;2576643;28;20129;-86
2022/05/20 06:09:54;;;;;;;5.25;2.65;;;;;;;18.32;95.14;98975.63;2575921;28;20077;-88
2022/05/20 06:11:09;;;;;;;3.50;2.30;;;;;;;18.33;96.51;98969.41;2576153;28;20476;-87
2022/05/20 06:12:25;;;;;;;2.63;2.42;;;;;;;18.39;94.58;98973.53;2576187;28;20093;-86
2022/05/20 06:13:41;;;;;;;4.38;2.50;;;;;;;18.59;94.47;98975.16;2575694;28;20058;-85
2022/05/20 06:14:56;;;;;;;4.32;2.50;;;;;;;18.76;94.07;98969.78;2575980;28;20061;-87
2022/05/20 06:16:19;;;;;;;3.90;2.80;;;;;;;18.89;93.46;98975.28;2576072;28;20046;-85
2022/05/20 06:17:35;;;;;;;5.45;2.67;;;;;;;18.75;92.45;98969.88;2575697;28;20619;-86
2022/05/20 06:18:51;;;;;;;2.60;2.35;;;;;;;18.90;92.97;98969.03;2575784;28;20050;-86
2022/05/20 06:20:07;;;;;;;3.40;2.50;;;;;;;18.91;92.61;98970.75;2575824;28;20065;-86